Time;durP1;ratioP1;P1;durP2;ratioP2;P2;SDS_P1;SDS_P2;PMS_P1;PMS_P2;Temp;Humidity;BMP_temperature;BMP_pressure;BME280_temperature;BME280_humidity;BME280_pressure;Samples;Min_cycle;Max_cycle;Signal;HPM_P1;HPM_P2
2021/08/11 00:01:11;;;;;;;13.43;6.18;;;;;;;13.85;100.00;100933.63;5034773;28;20087;-72
2021/08/11 00:03:39;;;;;;;9.20;6.95;;;;;;;14.08;100.00;100945.31;5013930;28;20548;-72
2021/08/11 00:06:07;;;;;;;10.90;6.82;;;;;;;14.03;100.00;100945.63;5011075;28;20107;-73
2021/08/11 00:08:34;;;;;;;8.73;6.13;;;;;;;14.07;100.00;100949.75;5009248;28;20131;-71
2021/08/11 00:11:01;;;;;;;9.80;6.85;;;;;;;14.04;100.00;100947.31;5012032;28;20049;-72
2021/08/11 00:13:29;;;;;;;7.30;5.75;;;;;;;14.05;100.00;100951.66;5015120;28;20067;-72
2021/08/11 00:15:56;;;;;;;6.43;5.40;;;;;;;14.07;100.00;100944.47;5014321;28;20136;-71
2021/08/11 00:18:23;;;;;;;6.90;4.32;;;;;;;14.04;100.00;100954.41;5027939;28;20140;-71
2021/08/11 00:20:50;;;;;;;5.82;3.63;;;;;;;14.06;100.00;100958.66;5030160;28;20053;-70
2021/08/11 00:23:17;;;;;;;6.38;4.63;;;;;;;14.09;100.00;100955.78;5027891;28;20474;-71
2021/08/11 00:25:44;;;;;;;7.05;4.40;;;;;;;14.23;100.00;100964.56;5024873;28;20730;-71
2021/08/11 00:28:12;;;;;;;6.90;4.30;;;;;;;14.32;100.00;100964.81;4991668;28;20108;-71
2021/08/11 00:30:39;;;;;;;5.60;4.32;;;;;;;14.42;100.00;100968.50;5030315;28;20132;-71
2021/08/11 00:33:06;;;;;;;5.90;4.35;;;;;;;14.54;100.00;100960.69;5010782;28;20080;-71
2021/08/11 00:35:33;;;;;;;4.55;3.53;;;;;;;14.65;100.00;100961.63;5014281;28;20059;-71
2021/08/11 00:38:00;;;;;;;4.90;3.70;;;;;;;14.74;100.00;100967.25;5007789;28;20077;-71
2021/08/11 00:40:29;;;;;;;5.20;4.03;;;;;;;14.71;100.00;100972.75;5014300;28;20121;-72
2021/08/11 00:42:56;;;;;;;7.20;4.47;;;;;;;14.69;100.00;100968.41;5008079;28;20136;-71
2021/08/11 00:45:24;;;;;;;6.45;3.85;;;;;;;14.62;100.00;100964.50;5016759;28;20057;-71
2021/08/11 00:47:52;;;;;;;5.95;4.05;;;;;;;14.50;100.00;100960.06;5006892;28;20430;-71
2021/08/11 00:50:20;;;;;;;5.90;4.30;;;;;;;14.41;100.00;100968.63;4994998;28;20055;-70
2021/08/11 00:52:48;;;;;;;7.45;4.60;;;;;;;14.12;100.00;100967.97;5009438;28;20049;-72
2021/08/11 00:55:15;;;;;;;6.30;4.80;;;;;;;14.08;100.00;100975.28;4996707;28;20069;-72
2021/08/11 00:57:43;;;;;;;6.60;5.30;;;;;;;14.16;100.00;100967.66;5006770;28;20074;-72
2021/08/11 01:00:13;;;;;;;5.05;4.50;;;;;;;14.15;100.00;100963.31;5009474;28;20112;-71
2021/08/11 01:02:40;;;;;;;6.50;4.75;;;;;;;14.13;100.00;100965.22;5019805;28;20144;-71
2021/08/11 01:05:09;;;;;;;7.43;5.53;;;;;;;14.28;100.00;100970.44;4999179;28;20480;-72
2021/08/11 01:07:36;;;;;;;6.68;5.43;;;;;;;14.21;100.00;100974.44;5012977;28;20817;-71
2021/08/11 01:10:05;;;;;;;7.53;6.50;;;;;;;14.11;100.00;100977.72;5006948;28;20099;-72
2021/08/11 01:12:33;;;;;;;9.80;6.25;;;;;;;14.15;100.00;100971.25;5011438;28;20128;-71
2021/08/11 01:15:04;;;;;;;8.95;6.78;;;;;;;14.15;100.00;100975.72;5012575;28;20201;-71
2021/08/11 01:17:31;;;;;;;9.98;6.90;;;;;;;14.11;100.00;100980.38;5020596;28;20980;-72
2021/08/11 01:20:01;;;;;;;8.73;7.15;;;;;;;14.12;100.00;100974.09;5021106;28;20057;-71
2021/08/11 01:22:36;;;;;;;13.00;8.00;;;;;;;14.05;100.00;100979.91;4991800;28;20053;-72
2021/08/11 01:25:14;;;;;;;10.95;8.65;;;;;;;14.10;100.00;100980.47;5041146;28;20060;-71
2021/08/11 01:28:00;;;;;;;11.60;8.57;;;;;;;14.07;100.00;100983.31;4991088;28;20057;-71
2021/08/11 01:30:34;;;;;;;11.70;8.73;;;;;;;14.08;100.00;100975.28;5006009;28;20057;-71
2021/08/11 01:33:17;;;;;;;11.77;9.10;;;;;;;14.15;100.00;100987.16;5004220;28;20133;-72
2021/08/11 01:35:57;;;;;;;11.75;9.00;;;;;;;14.15;100.00;100986.31;5008751;28;20587;-71
2021/08/11 01:38:26;;;;;;;9.43;8.43;;;;;;;14.12;100.00;100983.84;5019945;28;20053;-71
2021/08/11 01:40:56;;;;;;;12.90;8.45;;;;;;;14.13;100.00;100989.03;4989482;28;20056;-71
2021/08/11 01:43:25;;;;;;;9.73;8.35;;;;;;;14.07;100.00;100984.16;5001486;28;20048;-72
2021/08/11 01:45:55;;;;;;;12.07;8.07;;;;;;;14.05;100.00;100988.72;5012978;28;20414;-71
2021/08/11 01:48:27;;;;;;;13.65;8.57;;;;;;;14.01;100.00;100981.09;4991644;28;20503;-70
2021/08/11 01:50:56;;;;;;;10.82;8.57;;;;;;;14.08;100.00;100979.72;5010074;28;20076;-71
2021/08/11 01:53:25;;;;;;;10.75;8.75;;;;;;;14.10;100.00;100983.13;4994565;28;20069;-71
2021/08/11 01:55:56;;;;;;;9.60;8.48;;;;;;;14.03;100.00;100987.97;5015495;28;20136;-71
2021/08/11 01:58:25;;;;;;;16.08;9.48;;;;;;;14.06;100.00;100994.88;4999371;28;20049;-72
2021/08/11 02:00:56;;;;;;;12.48;8.60;;;;;;;14.00;100.00;100990.81;5016088;28;20041;-71
2021/08/11 02:03:24;;;;;;;14.70;8.75;;;;;;;13.97;100.00;100982.25;4991452;28;20084;-70
2021/08/11 02:05:53;;;;;;;10.80;7.88;;;;;;;13.80;100.00;100981.56;5009566;28;20538;-71
2021/08/11 02:08:21;;;;;;;12.27;7.78;;;;;;;13.74;100.00;100974.06;5009971;28;20053;-71
2021/08/11 02:10:50;;;;;;;9.70;7.65;;;;;;;13.80;100.00;100975.44;5009101;28;20157;-71
2021/08/11 02:13:17;;;;;;;11.85;8.57;;;;;;;13.80;100.00;100986.03;4992673;28;20152;-71
2021/08/11 02:15:51;;;;;;;9.35;7.70;;;;;;;13.86;100.00;100988.25;5013087;28;20137;-70
2021/08/11 02:18:19;;;;;;;11.05;8.27;;;;;;;13.85;100.00;100984.75;4975876;28;20388;-70
2021/08/11 02:20:46;;;;;;;9.77;7.68;;;;;;;13.93;100.00;100990.41;4999684;28;20602;-71
2021/08/11 02:23:13;;;;;;;9.52;7.85;;;;;;;13.79;100.00;100986.97;5001540;28;20407;-70
2021/08/11 02:25:59;;;;;;;10.90;7.80;;;;;;;13.75;100.00;100988.13;5022362;28;20073;-70
2021/08/11 02:28:32;;;;;;;10.20;8.33;;;;;;;13.69;100.00;100994.69;5007197;28;20059;-70
2021/08/11 02:31:12;;;;;;;10.18;7.63;;;;;;;13.74;100.00;101008.47;4971870;28;20477;-70
2021/08/11 02:33:45;;;;;;;13.23;9.13;;;;;;;13.67;100.00;101000.06;5008354;28;20046;-70
2021/08/11 02:36:23;;;;;;;9.20;8.00;;;;;;;13.73;100.00;100998.78;5015562;28;20060;-74
2021/08/11 02:38:52;;;;;;;12.00;8.73;;;;;;;13.71;100.00;101005.16;4980041;28;20050;-71
2021/08/11 02:41:23;;;;;;;10.70;8.57;;;;;;;13.81;100.00;101007.09;5013890;28;20065;-70
2021/08/11 02:44:14;;;;;;;9.63;7.95;;;;;;;13.82;100.00;101003.47;4986769;28;20091;-71
2021/08/11 02:46:43;;;;;;;11.98;8.65;;;;;;;13.80;100.00;101001.91;5027702;28;20060;-71
2021/08/11 02:49:21;;;;;;;10.55;8.10;;;;;;;13.77;100.00;101000.28;5028796;28;20054;-72
2021/08/11 02:51:48;;;;;;;9.80;8.02;;;;;;;13.82;100.00;101000.00;4992269;28;20054;-72
2021/08/11 02:54:18;;;;;;;13.57;9.18;;;;;;;13.69;100.00;101005.28;5022782;28;20045;-71
2021/08/11 02:56:46;;;;;;;10.75;7.82;;;;;;;13.70;100.00;101003.47;5009459;28;20842;-71
2021/08/11 02:59:14;;;;;;;9.77;8.52;;;;;;;13.71;100.00;101013.09;5031227;28;20071;-71
2021/08/11 03:01:42;;;;;;;9.85;7.13;;;;;;;13.78;100.00;101009.06;5012974;28;20100;-71
2021/08/11 03:04:13;;;;;;;10.27;7.72;;;;;;;13.63;100.00;101017.06;5005861;28;20155;-70
2021/08/11 03:06:40;;;;;;;14.18;9.55;;;;;;;13.63;100.00;101022.38;4979556;28;20511;-71
2021/08/11 03:09:08;;;;;;;14.48;9.60;;;;;;;13.61;100.00;101010.22;4998688;28;20067;-70
2021/08/11 03:11:36;;;;;;;12.68;10.30;;;;;;;13.50;100.00;101012.69;4995160;28;20136;-71
2021/08/11 03:14:05;;;;;;;12.23;9.85;;;;;;;13.50;100.00;101017.97;4999309;28;20038;-71
2021/08/11 03:16:37;;;;;;;12.48;9.70;;;;;;;13.51;100.00;101017.03;5008740;28;20052;-71
2021/08/11 03:19:05;;;;;;;12.60;9.70;;;;;;;13.67;100.00;101020.38;5011699;28;20047;-71
2021/08/11 03:21:34;;;;;;;11.18;9.80;;;;;;;13.66;100.00;101024.81;5013922;28;20106;-71
2021/08/11 03:24:01;;;;;;;12.77;10.52;;;;;;;13.61;100.00;101013.69;5004837;28;20125;-72
2021/08/11 03:26:28;;;;;;;18.67;11.18;;;;;;;13.61;100.00;101015.50;5020654;28;20110;-72
2021/08/11 03:29:00;;;;;;;13.40;10.00;;;;;;;13.56;100.00;101018.44;4998406;28;20148;-72
2021/08/11 03:31:28;;;;;;;13.65;10.43;;;;;;;13.58;100.00;101005.97;5022744;28;20050;-72
2021/08/11 03:33:56;;;;;;;13.75;10.40;;;;;;;13.55;100.00;101014.09;4985339;28;20134;-72
2021/08/11 03:36:24;;;;;;;15.18;11.27;;;;;;;13.51;100.00;101011.72;5026063;28;20582;-72
2021/08/11 03:38:52;;;;;;;14.52;11.38;;;;;;;13.52;100.00;101008.16;4981318;28;20092;-71
2021/08/11 03:41:19;;;;;;;14.48;11.55;;;;;;;13.54;100.00;101004.47;5014914;28;20060;-72
2021/08/11 03:43:46;;;;;;;14.45;11.50;;;;;;;13.58;100.00;101007.75;5012140;28;20073;-73
2021/08/11 03:46:14;;;;;;;18.20;16.48;;;;;;;13.53;100.00;101005.41;5032934;28;20097;-72
2021/08/11 03:48:41;;;;;;;17.15;13.00;;;;;;;13.58;100.00;101011.25;5014551;28;20144;-71
2021/08/11 03:51:08;;;;;;;16.75;11.48;;;;;;;13.63;100.00;101006.50;5018452;28;20411;-71
2021/08/11 03:53:35;;;;;;;13.68;11.88;;;;;;;13.56;100.00;101013.16;5000137;28;20048;-72
2021/08/11 03:56:03;;;;;;;13.93;11.23;;;;;;;13.59;100.00;101018.22;5049745;28;20036;-72
2021/08/11 03:58:30;;;;;;;14.80;12.23;;;;;;;13.67;100.00;101015.09;5009054;28;20044;-72
2021/08/11 04:00:57;;;;;;;12.65;11.27;;;;;;;13.72;100.00;101014.78;4996395;28;20079;-73
2021/08/11 04:03:25;;;;;;;16.30;12.43;;;;;;;13.70;100.00;101022.84;4997075;28;20045;-71
2021/08/11 04:05:53;;;;;;;15.77;12.30;;;;;;;13.72;100.00;101020.91;5010137;28;20136;-73
2021/08/11 04:08:20;;;;;;;14.55;11.02;;;;;;;13.73;100.00;101021.78;5016752;28;20048;-72
2021/08/11 04:10:48;;;;;;;18.52;11.93;;;;;;;13.80;100.00;101023.91;4994271;28;20129;-73
2021/08/11 04:13:16;;;;;;;14.00;11.15;;;;;;;13.66;100.00;101027.47;4992315;28;20053;-72
2021/08/11 04:15:43;;;;;;;18.83;14.07;;;;;;;13.73;100.00;101033.19;4978493;28;20124;-72
2021/08/11 04:18:11;;;;;;;19.40;12.63;;;;;;;13.72;100.00;101028.00;5007252;28;20573;-71
2021/08/11 04:20:38;;;;;;;16.52;11.82;;;;;;;13.63;100.00;101029.47;4992447;28;20133;-71
2021/08/11 04:23:06;;;;;;;15.38;13.07;;;;;;;13.68;100.00;101037.94;5023813;28;20049;-71
2021/08/11 04:25:36;;;;;;;16.00;12.55;;;;;;;13.74;100.00;101039.38;4992579;28;20065;-69
2021/08/11 04:28:04;;;;;;;15.88;12.02;;;;;;;13.96;100.00;101033.47;5012932;28;20411;-70
2021/08/11 04:30:31;;;;;;;14.52;12.40;;;;;;;13.87;100.00;101041.09;5027269;28;20115;-71
2021/08/11 04:32:58;;;;;;;16.73;12.52;;;;;;;13.86;100.00;101038.53;4990311;28;20451;-71
2021/08/11 04:35:26;;;;;;;21.23;13.73;;;;;;;13.86;100.00;101043.81;4981597;28;20044;-72
2021/08/11 04:37:53;;;;;;;16.85;12.85;;;;;;;14.04;100.00;101047.06;5030858;28;20511;-73
2021/08/11 04:40:20;;;;;;;17.02;13.32;;;;;;;14.13;100.00;101052.56;5015409;28;20482;-71
2021/08/11 04:42:47;;;;;;;16.38;12.32;;;;;;;14.72;100.00;101053.94;5006906;28;20458;-75
2021/08/11 04:45:15;;;;;;;13.27;10.45;;;;;;;15.13;100.00;101054.56;5013376;28;20128;-72
2021/08/11 04:47:42;;;;;;;16.17;9.88;;;;;;;15.95;100.00;101060.13;5006504;28;20373;-72
2021/08/11 04:50:12;;;;;;;14.80;8.98;;;;;;;17.24;99.02;101058.16;5019432;23;20166;-73
2021/08/11 04:52:40;;;;;;;12.23;8.32;;;;;;;17.93;91.40;101050.78;5025689;28;20077;-71
2021/08/11 04:55:08;;;;;;;10.93;8.23;;;;;;;18.78;84.42;101050.66;5040346;28;20115;-71
2021/08/11 04:57:36;;;;;;;10.15;8.05;;;;;;;18.94;81.42;101053.66;5015770;28;20143;-73
2021/08/11 05:00:03;;;;;;;9.07;7.22;;;;;;;19.69;76.21;101049.69;5012759;28;20118;-73
2021/08/11 05:02:32;;;;;;;12.68;7.35;;;;;;;20.03;73.90;101059.97;5015519;28;20081;-70
2021/08/11 05:05:00;;;;;;;12.15;7.15;;;;;;;20.47;71.06;101071.03;5028866;28;20038;-75
2021/08/11 05:07:27;;;;;;;13.27;8.20;;;;;;;20.55;70.09;101070.38;5006888;28;20055;-71
2021/08/11 05:09:54;;;;;;;14.60;7.68;;;;;;;21.56;67.18;101066.00;5001458;28;20144;-74
2021/08/11 05:12:23;;;;;;;9.10;6.50;;;;;;;22.15;64.07;101068.13;5020472;28;20080;-74
2021/08/11 05:14:54;;;;;;;9.73;7.45;;;;;;;23.24;59.62;101073.88;5005339;28;20126;-74
2021/08/11 05:17:22;;;;;;;10.43;7.13;;;;;;;23.31;58.31;101075.91;5003556;28;20583;-74
2021/08/11 05:19:50;;;;;;;8.70;7.05;;;;;;;23.80;57.20;101078.75;4994795;28;20514;-74
2021/08/11 05:22:18;;;;;;;11.73;7.20;;;;;;;23.86;55.55;101080.78;4982399;28;20148;-76
2021/08/11 05:24:46;;;;;;;11.85;6.88;;;;;;;24.38;54.64;101077.81;5003808;28;20050;-76
2021/08/11 05:27:17;;;;;;;13.15;8.75;;;;;;;23.18;57.66;101089.78;5002854;28;20045;-74
2021/08/11 05:29:44;;;;;;;11.48;7.20;;;;;;;24.12;54.81;101080.63;5007763;28;20128;-75
2021/08/11 05:32:13;;;;;;;9.82;6.80;;;;;;;24.00;54.82;101080.13;5012910;28;20140;-75
2021/08/11 05:34:41;;;;;;;13.80;8.43;;;;;;;24.70;53.27;101088.53;4974786;28;20080;-76
2021/08/11 05:37:08;;;;;;;9.20;7.05;;;;;;;24.35;53.83;101084.31;4985260;28;20052;-74
2021/08/11 05:39:36;;;;;;;13.48;7.68;;;;;;;23.47;55.91;101087.56;5021713;28;20041;-75
2021/08/11 05:42:03;;;;;;;17.42;7.97;;;;;;;22.96;58.76;101092.00;4990346;28;20132;-75
2021/08/11 05:44:33;;;;;;;14.48;8.30;;;;;;;24.64;53.82;101086.53;4992744;28;20057;-74
2021/08/11 05:47:03;;;;;;;28.40;9.20;;;;;;;24.48;53.62;101094.63;5000920;28;20567;-77
2021/08/11 05:49:32;;;;;;;16.27;7.78;;;;;;;25.32;51.72;101092.41;5013743;28;20058;-76
2021/08/11 05:51:59;;;;;;;10.68;6.95;;;;;;;26.28;49.09;101091.97;4986436;28;20062;-74
2021/08/11 05:54:26;;;;;;;14.57;8.65;;;;;;;26.73;46.80;101091.06;5026094;28;20407;-74
2021/08/11 05:56:53;;;;;;;15.30;8.40;;;;;;;27.27;45.77;101100.81;5031964;28;20411;-74
2021/08/11 05:59:20;;;;;;;11.90;7.55;;;;;;;26.97;46.47;101099.94;5012810;28;20429;-74
2021/08/11 06:01:48;;;;;;;13.88;7.20;;;;;;;28.22;43.73;101102.50;5002710;28;20890;-75
2021/08/11 06:04:17;;;;;;;20.60;8.75;;;;;;;27.44;44.88;101104.13;5009979;28;20041;-74
2021/08/11 06:06:44;;;;;;;11.35;7.93;;;;;;;26.90;46.39;101104.41;5033206;28;20377;-75
2021/08/11 06:09:11;;;;;;;18.70;9.15;;;;;;;27.58;45.08;101105.97;4999806;28;20088;-75
2021/08/11 06:11:38;;;;;;;15.18;8.25;;;;;;;27.88;44.32;101111.34;5033697;28;20140;-75
2021/08/11 06:14:05;;;;;;;16.33;8.85;;;;;;;26.90;46.26;101113.38;4980126;28;20057;-74
2021/08/11 06:16:37;;;;;;;20.77;9.40;;;;;;;27.96;43.86;101117.47;5011958;28;20038;-75
2021/08/11 06:19:05;;;;;;;15.55;8.70;;;;;;;27.92;44.13;101115.31;5011474;28;20458;-74
2021/08/11 06:21:32;;;;;;;13.27;8.00;;;;;;;29.92;40.10;101123.78;4990034;28;20067;-74
2021/08/11 06:23:59;;;;;;;11.55;8.27;;;;;;;29.47;39.89;101120.69;4988854;28;20184;-74
2021/08/11 06:26:26;;;;;;;10.02;7.82;;;;;;;30.05;39.38;101121.09;5005825;28;20613;-74
2021/08/11 06:28:53;;;;;;;8.85;7.88;;;;;;;30.29;38.85;101127.00;5028840;28;20129;-74
2021/08/11 06:31:23;;;;;;;26.77;9.35;;;;;;;27.35;43.76;101125.03;5039347;28;20153;-75
2021/08/11 06:33:52;;;;;;;18.83;9.18;;;;;;;27.94;43.70;101113.28;5015697;28;20129;-73
2021/08/11 06:36:22;;;;;;;14.80;8.57;;;;;;;27.89;43.40;101119.25;5010422;28;20045;-75
2021/08/11 06:38:49;;;;;;;12.55;7.97;;;;;;;27.78;44.05;101125.16;5023332;28;20091;-75
2021/08/11 06:41:17;;;;;;;12.43;8.07;;;;;;;28.41;42.01;101131.63;5017020;28;20161;-75
2021/08/11 06:43:46;;;;;;;18.35;7.80;;;;;;;29.53;40.69;101134.25;5024879;28;20062;-74
2021/08/11 06:46:13;;;;;;;12.00;6.90;;;;;;;30.70;38.26;101132.19;5015854;28;20105;-74
2021/08/11 06:48:40;;;;;;;11.43;6.53;;;;;;;30.13;38.69;101131.75;5031272;28;20541;-74
2021/08/11 06:51:08;;;;;;;11.43;7.18;;;;;;;30.29;38.23;101130.53;5035600;28;20133;-75
2021/08/11 06:53:36;;;;;;;10.77;6.50;;;;;;;30.58;37.67;101125.75;5033648;28;20541;-74
2021/08/11 06:56:03;;;;;;;9.70;6.80;;;;;;;31.46;36.39;101131.66;5025458;28;20553;-75
2021/08/11 06:58:30;;;;;;;13.80;6.28;;;;;;;31.82;35.38;101132.94;4986318;28;20095;-74
2021/08/11 07:00:59;;;;;;;10.15;6.63;;;;;;;33.03;33.05;101137.28;5035587;28;20045;-75
2021/08/11 07:03:27;;;;;;;11.25;7.43;;;;;;;32.21;33.94;101132.72;4989614;28;20113;-76
2021/08/11 07:05:54;;;;;;;11.93;7.28;;;;;;;31.11;36.31;101126.50;5012285;28;20050;-76
2021/08/11 07:08:22;;;;;;;16.33;6.70;;;;;;;31.11;35.64;101131.13;5030632;28;20497;-76
2021/08/11 07:10:49;;;;;;;8.32;5.82;;;;;;;29.78;38.59;101139.19;5025627;28;20053;-75
2021/08/11 07:13:17;;;;;;;15.50;7.00;;;;;;;30.89;36.92;101131.41;5013675;28;20045;-74
2021/08/11 07:15:44;;;;;;;10.95;7.20;;;;;;;31.29;35.63;101130.47;4988066;28;20057;-75
2021/08/11 07:18:19;;;;;;;12.10;6.20;;;;;;;31.67;35.00;101135.97;4997071;28;20069;-76
2021/08/11 07:20:46;;;;;;;7.78;5.90;;;;;;;32.06;33.94;101129.47;5011519;28;20070;-74
2021/08/11 07:23:13;;;;;;;12.75;6.32;;;;;;;31.83;34.26;101138.19;5027134;28;20045;-75
2021/08/11 07:25:41;;;;;;;8.88;5.15;;;;;;;30.63;36.07;101144.97;5029587;28;20176;-75
2021/08/11 07:28:08;;;;;;;10.10;5.85;;;;;;;29.90;37.51;101151.13;5007134;28;20546;-75
2021/08/11 07:30:37;;;;;;;15.52;6.13;;;;;;;30.17;36.97;101148.47;5017414;28;20105;-76
2021/08/11 07:33:07;;;;;;;9.07;4.82;;;;;;;30.55;36.52;101148.75;5031200;28;20083;-76
2021/08/11 07:35:38;;;;;;;10.45;5.93;;;;;;;30.57;36.62;101154.78;5018546;28;20638;-75
2021/08/11 07:38:06;;;;;;;8.20;5.78;;;;;;;31.40;34.40;101160.56;5030207;28;20041;-76
2021/08/11 07:40:35;;;;;;;8.25;5.13;;;;;;;29.30;38.87;101169.00;5016808;28;20049;-76
2021/08/11 07:43:04;;;;;;;8.65;6.03;;;;;;;29.57;38.38;101178.13;4981678;28;20096;-74
2021/08/11 07:45:32;;;;;;;8.93;5.85;;;;;;;29.70;37.89;101171.94;5008473;28;20293;-74
2021/08/11 07:47:59;;;;;;;7.72;5.95;;;;;;;29.84;38.05;101170.94;4999430;28;20086;-77
2021/08/11 07:50:28;;;;;;;7.30;5.93;;;;;;;28.40;41.18;101173.31;5038671;28;20091;-75
2021/08/11 07:52:56;;;;;;;8.48;6.50;;;;;;;27.92;41.58;101175.72;4991381;28;20072;-76
2021/08/11 07:55:24;;;;;;;7.82;6.03;;;;;;;26.95;44.11;101166.84;5024079;28;20038;-74
2021/08/11 07:57:51;;;;;;;6.95;5.80;;;;;;;26.99;44.70;101173.56;5030310;28;20088;-74
2021/08/11 08:00:20;;;;;;;11.45;5.95;;;;;;;26.80;44.95;101176.81;5001977;28;20109;-75
2021/08/11 08:02:47;;;;;;;9.85;5.97;;;;;;;27.72;42.84;101172.75;5006195;28;20077;-74
2021/08/11 08:05:16;;;;;;;10.27;5.55;;;;;;;28.57;40.79;101176.59;5014522;28;20435;-75
2021/08/11 08:07:43;;;;;;;8.82;4.97;;;;;;;27.07;43.12;101178.88;5000917;28;20089;-77
2021/08/11 08:10:11;;;;;;;7.70;5.85;;;;;;;28.14;41.73;101173.00;5010437;28;20069;-76
2021/08/11 08:12:39;;;;;;;8.30;5.13;;;;;;;29.05;39.31;101175.97;5012028;28;20038;-74
2021/08/11 08:15:07;;;;;;;9.35;5.35;;;;;;;29.23;39.83;101177.09;4997838;28;20049;-75
2021/08/11 08:17:35;;;;;;;8.18;5.00;;;;;;;28.59;40.27;101177.22;4991788;28;20637;-73
2021/08/11 08:20:15;;;;;;;7.85;4.90;;;;;;;29.02;38.86;101178.00;5009366;28;20056;-75
2021/08/11 08:22:43;;;;;;;10.73;5.85;;;;;;;28.30;40.41;101174.63;5000452;28;20595;-76
2021/08/11 08:25:10;;;;;;;6.32;4.82;;;;;;;29.90;37.23;101181.00;5041053;28;20384;-74
2021/08/11 08:27:39;;;;;;;6.72;4.75;;;;;;;30.12;36.22;101176.22;5008237;28;20065;-76
2021/08/11 08:30:08;;;;;;;8.65;4.50;;;;;;;29.47;38.33;101185.78;5004714;28;20105;-71
2021/08/11 08:32:35;;;;;;;9.70;5.10;;;;;;;29.18;38.00;101187.72;4997793;28;20154;-70
2021/08/11 08:35:03;;;;;;;9.05;5.00;;;;;;;27.98;40.89;101184.94;5007554;28;20049;-72
2021/08/11 08:37:32;;;;;;;7.80;4.47;;;;;;;28.96;38.50;101181.53;5020507;28;20155;-73
2021/08/11 08:40:05;;;;;;;5.75;3.95;;;;;;;27.99;41.04;101189.31;5015729;28;20120;-72
2021/08/11 08:42:32;;;;;;;8.68;4.75;;;;;;;27.48;41.40;101184.69;4997329;28;20148;-72
2021/08/11 08:45:00;;;;;;;8.35;5.45;;;;;;;25.49;46.23;101191.91;5007053;28;20121;-71
2021/08/11 08:47:28;;;;;;;8.63;5.45;;;;;;;24.64;48.64;101190.69;4988006;28;20053;-73
2021/08/11 08:49:56;;;;;;;13.48;4.53;;;;;;;23.81;51.29;101196.03;5043891;28;20125;-73
2021/08/11 08:52:24;;;;;;;9.55;5.30;;;;;;;23.32;53.11;101196.63;4985422;28;20140;-73
2021/08/11 08:54:51;;;;;;;8.20;4.53;;;;;;;22.44;55.33;101191.25;5014819;28;20434;-73
2021/08/11 08:57:19;;;;;;;6.40;4.75;;;;;;;22.36;55.54;101187.66;5007112;28;20117;-73
2021/08/11 08:59:46;;;;;;;7.32;4.85;;;;;;;23.04;54.90;101189.75;5011643;28;20099;-72
2021/08/11 09:02:13;;;;;;;6.05;4.43;;;;;;;22.34;55.88;101195.88;5028310;28;20129;-73
2021/08/11 09:04:42;;;;;;;9.60;4.25;;;;;;;22.48;56.07;101199.84;5006736;28;20499;-73
2021/08/11 09:07:14;;;;;;;12.85;4.45;;;;;;;22.46;54.57;101201.84;5022636;28;20081;-74
2021/08/11 09:09:41;;;;;;;6.15;4.03;;;;;;;22.05;56.29;101208.59;5004326;28;20111;-73
2021/08/11 09:12:10;;;;;;;8.70;4.13;;;;;;;22.53;55.92;101205.59;5019028;28;20138;-74
2021/08/11 09:14:37;;;;;;;6.30;3.70;;;;;;;23.07;54.39;101205.56;5012758;28;20072;-73
2021/08/11 09:17:05;;;;;;;10.05;4.65;;;;;;;23.01;54.05;101207.03;5030874;28;20136;-68
2021/08/11 09:19:45;;;;;;;5.15;3.85;;;;;;;22.71;54.90;101202.91;5025063;28;20490;-69
2021/08/11 09:22:14;;;;;;;7.70;4.40;;;;;;;22.22;56.70;101215.84;5009886;28;20046;-74
2021/08/11 09:24:41;;;;;;;7.70;4.50;;;;;;;22.12;56.76;101205.19;4996441;28;20064;-71
2021/08/11 09:27:21;;;;;;;9.40;4.40;;;;;;;22.16;56.17;101206.59;5002267;28;20053;-72
2021/08/11 09:30:19;;;;;;;8.50;3.90;;;;;;;22.18;55.35;101212.63;5015274;28;20128;-73
2021/08/11 09:32:52;;;;;;;6.03;3.90;;;;;;;22.26;55.88;101206.50;4969264;28;20136;-72
2021/08/11 09:35:26;;;;;;;8.02;3.90;;;;;;;22.45;55.82;101208.19;5021880;28;20096;-71
2021/08/11 09:37:56;;;;;;;5.70;4.25;;;;;;;22.49;56.13;101213.09;5007207;28;20458;-73
2021/08/11 09:40:28;;;;;;;7.75;4.40;;;;;;;21.96;56.47;101211.19;5002421;28;20052;-72
2021/08/11 09:42:58;;;;;;;10.00;5.10;;;;;;;22.17;57.93;101208.25;5026760;28;20053;-72
2021/08/11 09:45:26;;;;;;;6.13;4.30;;;;;;;;;;5041880;28;20060;-73
2021/08/11 09:47:56;;;;;;;7.22;4.45;;;;;;;22.10;57.69;101204.47;5017263;28;20033;-73
2021/08/11 09:51:06;;;;;;;10.93;4.25;;;;;;;21.50;55.92;101206.75;4997482;28;20045;-72
2021/08/11 09:53:37;;;;;;;9.52;3.83;;;;;;;21.88;56.15;101213.75;4977534;28;20048;-72
2021/08/11 09:56:12;;;;;;;6.65;4.00;;;;;;;21.97;56.01;101212.88;4992689;28;20282;-73
2021/08/11 09:58:42;;;;;;;9.23;3.92;;;;;;;22.22;55.64;101214.00;5016946;28;20041;-72
2021/08/11 10:01:16;;;;;;;6.95;4.25;;;;;;;22.04;55.11;101206.91;5026844;28;20071;-73
2021/08/11 10:04:00;;;;;;;8.57;3.67;;;;;;;21.32;56.98;101217.41;4993099;28;20098;-73
2021/08/11 10:06:32;;;;;;;7.20;3.70;;;;;;;21.60;55.65;101214.75;5008508;28;20128;-76
2021/08/11 10:09:23;;;;;;;9.10;3.45;;;;;;;21.83;56.25;101220.56;5037396;28;20049;-73
2021/08/11 10:11:57;;;;;;;6.57;3.75;;;;;;;21.80;54.76;101219.03;5006468;28;20140;-73
2021/08/11 10:14:29;;;;;;;8.07;3.60;;;;;;;22.41;52.54;101214.88;5009251;28;20084;-73
2021/08/11 10:16:58;;;;;;;5.75;3.30;;;;;;;22.67;51.52;101210.41;5012093;28;20041;-74
2021/08/11 10:19:28;;;;;;;8.00;4.10;;;;;;;22.58;52.37;101210.50;5037789;28;20072;-71
2021/08/11 10:21:57;;;;;;;5.43;3.00;;;;;;;22.83;50.54;101211.53;5003538;28;20045;-73
2021/08/11 10:24:28;;;;;;;4.47;3.45;;;;;;;23.24;49.53;101213.56;4993275;28;20069;-72
2021/08/11 10:26:56;;;;;;;7.38;3.97;;;;;;;23.36;49.03;101216.81;5029373;28;20136;-72
2021/08/11 10:29:26;;;;;;;6.03;3.95;;;;;;;22.81;49.50;101214.38;5013988;28;20508;-74
2021/08/11 10:31:56;;;;;;;5.22;3.35;;;;;;;23.20;48.64;101214.88;5026581;28;20112;-72
2021/08/11 10:34:31;;;;;;;9.13;3.85;;;;;;;23.16;48.68;101216.19;5015129;28;20081;-75
2021/08/11 10:36:59;;;;;;;6.40;3.25;;;;;;;22.85;48.39;101215.75;5013098;28;20111;-72
2021/08/11 10:39:30;;;;;;;9.43;3.90;;;;;;;22.95;48.89;101210.31;5011914;28;20404;-72
2021/08/11 10:42:01;;;;;;;4.50;3.00;;;;;;;23.67;46.79;101211.78;4996397;28;20141;-73
2021/08/11 10:44:29;;;;;;;5.57;3.80;;;;;;;23.64;47.04;101214.81;5013323;28;20073;-70
2021/08/11 10:47:01;;;;;;;5.95;3.53;;;;;;;23.17;49.11;101227.78;5042761;28;20061;-72
2021/08/11 10:49:29;;;;;;;6.45;3.40;;;;;;;22.73;50.27;101223.19;5008307;28;20198;-72
2021/08/11 10:52:13;;;;;;;9.27;3.70;;;;;;;22.14;52.49;101229.16;5016829;28;20413;-71
2021/08/11 10:54:54;;;;;;;6.55;3.67;;;;;;;21.73;53.85;101236.69;5007382;28;20133;-73
2021/08/11 10:57:36;;;;;;;5.43;3.63;;;;;;;22.29;53.23;101229.50;5000838;28;20141;-73
2021/08/11 11:00:23;;;;;;;11.35;3.38;;;;;;;22.81;48.95;101226.97;5030522;28;20455;-73
2021/08/11 11:02:52;;;;;;;4.72;2.92;;;;;;;23.02;47.80;101222.13;5026032;28;20124;-71
2021/08/11 11:05:21;;;;;;;5.30;3.30;;;;;;;23.25;47.07;101227.84;5036240;28;20051;-72
2021/08/11 11:08:10;;;;;;;6.03;3.20;;;;;;;23.18;48.57;101219.53;5002652;28;20077;-72
2021/08/11 11:10:42;;;;;;;7.88;3.40;;;;;;;23.59;47.36;101222.47;5003123;28;20137;-74
2021/08/11 11:13:35;;;;;;;9.85;3.80;;;;;;;23.44;46.96;101234.81;5012857;28;20083;-72
2021/08/11 11:16:03;;;;;;;9.57;3.63;;;;;;;23.27;47.82;101235.72;5015606;28;20077;-71
2021/08/11 11:18:30;;;;;;;4.93;2.88;;;;;;;22.32;49.53;101232.72;5018600;28;20060;-71
2021/08/11 11:20:57;;;;;;;7.05;3.55;;;;;;;22.32;49.93;101238.09;5023164;28;20080;-73
2021/08/11 11:23:32;;;;;;;9.88;3.10;;;;;;;22.44;49.59;101238.72;5020771;28;20442;-73
2021/08/11 11:26:08;;;;;;;7.18;3.33;;;;;;;22.66;48.95;101234.75;5032300;28;20708;-72
2021/08/11 11:28:51;;;;;;;6.22;3.20;;;;;;;22.55;48.88;101243.00;5020064;28;20039;-72